createdAt,value
2017-10-19T00:02:24.493Z,8.70
2017-10-19T00:04:50.714Z,9.57
2017-10-19T00:07:16.948Z,9.10
2017-10-19T00:09:43.218Z,8.80
2017-10-19T00:12:09.606Z,9.70
2017-10-19T00:17:29.155Z,9.90
2017-10-19T00:19:56.180Z,9.50
2017-10-19T00:22:23.222Z,9.30
2017-10-19T00:24:49.589Z,9.90
2017-10-19T00:27:15.901Z,9.13
2017-10-19T00:29:42.908Z,8.83
2017-10-19T00:32:09.189Z,9.60
2017-10-19T00:34:35.498Z,8.70
2017-10-19T00:37:01.753Z,9.27
2017-10-19T00:39:28.108Z,10.57
2017-10-19T00:41:54.401Z,10.00
2017-10-19T00:44:21.485Z,9.97
2017-10-19T00:46:47.863Z,10.37
2017-10-19T00:49:14.098Z,11.00
2017-10-19T00:51:40.394Z,11.83
2017-10-19T00:54:06.684Z,10.37
2017-10-19T00:56:33.675Z,11.50
2017-10-19T00:58:59.982Z,11.30
2017-10-19T01:01:26.334Z,9.80
2017-10-19T01:03:52.690Z,9.37
2017-10-19T01:06:19.009Z,9.60
2017-10-19T01:08:45.319Z,9.27
2017-10-19T01:11:11.654Z,10.10
2017-10-19T01:13:37.955Z,10.00
2017-10-19T01:16:04.276Z,8.87
2017-10-19T01:18:31.300Z,9.80
2017-10-19T01:32:23.823Z,9.47
2017-10-19T01:34:50.779Z,10.87
2017-10-19T01:37:17.764Z,9.10
2017-10-19T01:39:44.048Z,9.13
2017-10-19T01:42:11.021Z,9.03
2017-10-19T01:44:37.235Z,9.70
2017-10-19T01:47:04.203Z,9.53
2017-10-19T01:52:30.515Z,8.93
2017-10-19T01:54:57.524Z,9.20
2017-10-19T01:57:23.670Z,9.70
2017-10-19T01:59:49.876Z,9.50
2017-10-19T02:02:16.057Z,10.40
2017-10-19T02:04:42.973Z,9.70
2017-10-19T02:07:09.205Z,10.50
2017-10-19T02:09:35.357Z,10.73
2017-10-19T02:12:02.343Z,11.40
2017-10-19T02:14:28.645Z,11.80
2017-10-19T02:16:54.904Z,10.90
2017-10-19T02:19:21.099Z,10.03
2017-10-19T02:21:47.280Z,10.37
2017-10-19T02:24:13.414Z,10.50
2017-10-19T02:26:39.597Z,10.90
2017-10-19T02:29:05.784Z,10.40
2017-10-19T02:31:31.994Z,10.27
2017-10-19T02:33:58.151Z,10.23
2017-10-19T02:36:25.067Z,10.00
2017-10-19T02:38:51.273Z,9.87
2017-10-19T02:41:17.423Z,10.60
2017-10-19T02:43:43.623Z,9.80
2017-10-19T02:46:09.762Z,11.37
2017-10-19T02:48:35.977Z,10.67
2017-10-19T02:51:02.228Z,11.30
2017-10-19T02:53:28.392Z,12.00
2017-10-19T02:55:55.335Z,10.50
2017-10-19T02:58:22.277Z,11.10
2017-10-19T03:00:49.241Z,11.00
2017-10-19T03:03:15.433Z,10.80
2017-10-19T03:05:41.692Z,11.80
2017-10-19T03:08:07.879Z,11.57
2017-10-19T03:10:34.172Z,12.47
2017-10-19T03:13:00.827Z,12.00
2017-10-19T03:15:27.021Z,11.43
2017-10-19T03:17:53.194Z,12.77
2017-10-19T03:20:19.725Z,12.57
2017-10-19T03:22:45.920Z,13.27
2017-10-19T03:25:12.114Z,12.07
2017-10-19T03:27:38.356Z,12.70
2017-10-19T03:30:05.289Z,12.67
2017-10-19T03:32:32.264Z,11.93
2017-10-19T03:34:58.535Z,12.97
2017-10-19T03:37:24.749Z,14.30
2017-10-19T03:39:50.914Z,10.90
2017-10-19T03:42:17.517Z,11.10
2017-10-19T03:44:43.747Z,10.77
2017-10-19T03:47:10.005Z,11.90
2017-10-19T03:49:36.194Z,12.67
2017-10-19T03:52:02.394Z,12.47
2017-10-19T03:54:28.589Z,13.13
2017-10-19T03:56:54.804Z,12.70
2017-10-19T03:59:20.985Z,13.10
2017-10-19T04:01:47.205Z,13.10
2017-10-19T04:04:13.420Z,13.87
2017-10-19T04:06:40.314Z,13.50
2017-10-19T04:09:06.509Z,13.07
2017-10-19T04:11:33.070Z,13.67
2017-10-19T04:13:59.316Z,13.50
2017-10-19T04:16:25.523Z,14.17
2017-10-19T04:18:51.731Z,13.97
2017-10-19T04:21:17.944Z,13.00
2017-10-19T04:23:44.094Z,13.53
2017-10-19T04:26:10.265Z,13.23
2017-10-19T04:28:36.396Z,13.57
2017-10-19T04:31:03.300Z,12.63
2017-10-19T04:33:29.479Z,13.47
2017-10-19T04:35:56.442Z,12.97
2017-10-19T04:38:22.618Z,12.47
2017-10-19T04:40:48.868Z,12.90
2017-10-19T04:43:15.018Z,11.83
2017-10-19T04:45:41.924Z,12.43
2017-10-19T04:48:08.151Z,12.73
2017-10-19T04:50:34.321Z,14.50
2017-10-19T04:53:00.504Z,12.90
2017-10-19T04:55:26.712Z,14.00
2017-10-19T04:57:52.900Z,13.67
2017-10-19T05:00:19.821Z,12.00
2017-10-19T05:02:46.165Z,13.60
2017-10-19T05:05:13.072Z,14.30
2017-10-19T05:07:39.246Z,13.07
2017-10-19T05:10:06.230Z,13.80
2017-10-19T05:12:32.465Z,14.10
2017-10-19T05:14:58.721Z,13.10
2017-10-19T05:17:25.200Z,11.13
2017-10-19T05:19:51.429Z,11.67
2017-10-19T05:22:17.661Z,10.10
2017-10-19T05:24:43.855Z,10.87
2017-10-19T05:27:10.066Z,10.43
2017-10-19T05:29:37.028Z,10.47
2017-10-19T05:32:04.017Z,10.67
2017-10-19T05:34:30.204Z,10.80
2017-10-19T05:36:57.089Z,10.80
2017-10-19T05:39:23.322Z,11.03
2017-10-19T05:41:49.497Z,11.87
2017-10-19T05:44:15.675Z,11.60
2017-10-19T05:46:41.860Z,10.27
2017-10-19T05:49:08.820Z,10.90
2017-10-19T05:51:35.805Z,11.57
2017-10-19T05:54:02.087Z,14.10
2017-10-19T05:56:29.054Z,13.87
2017-10-19T05:58:55.215Z,12.70
2017-10-19T06:01:21.446Z,13.20
2017-10-19T06:03:47.657Z,12.97
2017-10-19T06:06:13.871Z,13.67
2017-10-19T06:08:40.050Z,13.37
2017-10-19T06:11:06.226Z,13.30
2017-10-19T06:13:32.342Z,14.00
2017-10-19T06:15:58.921Z,12.47
2017-10-19T06:18:25.073Z,12.73
2017-10-19T06:20:51.245Z,13.23
2017-10-19T06:23:17.439Z,13.10
2017-10-19T06:25:44.373Z,13.07
2017-10-19T06:28:10.580Z,12.17
2017-10-19T06:30:36.781Z,13.10
2017-10-19T06:33:02.994Z,14.03
2017-10-19T06:35:29.105Z,13.70
2017-10-19T06:37:59.261Z,14.23
2017-10-19T06:40:25.518Z,13.00
2017-10-19T06:42:51.697Z,13.57
2017-10-19T06:45:17.949Z,13.00
2017-10-19T06:47:44.128Z,12.00
2017-10-19T06:50:11.081Z,12.70
2017-10-19T06:52:38.852Z,13.10
2017-10-19T06:55:05.491Z,11.53
2017-10-19T06:57:31.743Z,12.47
2017-10-19T06:59:58.120Z,11.37
2017-10-19T07:02:24.305Z,12.20
2017-10-19T07:04:51.956Z,12.93
2017-10-19T07:07:18.290Z,11.93
2017-10-19T07:09:44.485Z,11.60
2017-10-19T07:12:10.650Z,13.83
2017-10-19T07:14:37.946Z,13.50
2017-10-19T07:17:04.207Z,12.63
2017-10-19T07:19:30.394Z,12.10
2017-10-19T07:21:57.016Z,12.37
2017-10-19T07:24:23.220Z,12.17
2017-10-19T07:26:49.463Z,103.67
2017-10-19T07:29:15.692Z,26.27
2017-10-19T07:31:41.919Z,17.37
2017-10-19T07:34:08.206Z,13.50
2017-10-19T07:36:35.181Z,14.30
2017-10-19T07:39:01.373Z,14.40
2017-10-19T07:41:28.349Z,15.00
2017-10-19T07:43:54.571Z,14.07
2017-10-19T07:46:20.710Z,13.70
2017-10-19T07:48:47.042Z,13.10
2017-10-19T07:51:13.608Z,13.97
2017-10-19T07:53:39.817Z,13.23
2017-10-19T07:56:06.800Z,14.97
2017-10-19T07:58:33.014Z,16.00
2017-10-19T08:00:59.168Z,16.60
2017-10-19T08:03:26.061Z,17.10
2017-10-19T08:05:52.292Z,17.17
2017-10-19T08:08:18.500Z,16.30
2017-10-19T08:10:44.654Z,17.47
2017-10-19T08:13:10.901Z,15.27
2017-10-19T08:15:38.186Z,16.70
2017-10-19T08:18:05.115Z,16.97
2017-10-19T08:20:32.030Z,17.40
2017-10-19T08:22:58.229Z,17.17
2017-10-19T08:25:24.453Z,18.17
2017-10-19T08:27:50.697Z,19.13
2017-10-19T08:30:17.391Z,20.10
2017-10-19T08:32:43.639Z,20.87
2017-10-19T08:35:09.805Z,19.80
2017-10-19T08:37:35.954Z,19.80
2017-10-19T08:40:02.180Z,21.20
2017-10-19T08:42:28.763Z,21.90
2017-10-19T08:44:54.944Z,21.83
2017-10-19T08:47:21.074Z,22.20
2017-10-19T08:49:49.366Z,20.20
2017-10-19T08:52:16.345Z,22.40
2017-10-19T08:54:42.530Z,23.20
2017-10-19T08:57:08.697Z,22.10
2017-10-19T08:59:34.876Z,22.17
2017-10-19T09:02:01.051Z,24.27
2017-10-19T09:04:28.001Z,24.30
2017-10-19T09:06:54.207Z,24.13
2017-10-19T09:09:21.148Z,24.40
2017-10-19T09:11:48.061Z,22.63
2017-10-19T09:14:14.259Z,23.00
2017-10-19T09:16:40.403Z,21.10
2017-10-19T09:19:06.629Z,21.80
2017-10-19T09:21:32.781Z,23.77
2017-10-19T09:23:58.944Z,22.33
2017-10-19T09:26:25.516Z,23.83
2017-10-19T09:28:51.736Z,21.90
2017-10-19T09:31:17.955Z,23.47
2017-10-19T09:33:44.176Z,22.47
2017-10-19T09:36:10.334Z,23.17
2017-10-19T09:38:36.559Z,23.40
2017-10-19T09:41:02.807Z,26.67
2017-10-19T09:43:28.939Z,24.17
2017-10-19T09:45:55.113Z,24.60
2017-10-19T09:48:21.575Z,26.53
2017-10-19T09:50:47.717Z,26.23
2017-10-19T09:53:13.889Z,25.17
2017-10-19T09:55:40.774Z,26.57
2017-10-19T09:58:06.915Z,26.23
2017-10-19T10:00:33.098Z,26.30
2017-10-19T10:02:59.282Z,29.20
2017-10-19T10:05:25.481Z,26.40
2017-10-19T10:07:51.707Z,26.37
2017-10-19T10:10:17.869Z,24.20
2017-10-19T10:12:43.994Z,27.17
2017-10-19T10:15:10.405Z,26.50
2017-10-19T10:17:36.897Z,27.27
2017-10-19T10:20:03.085Z,26.53
2017-10-19T10:22:29.279Z,28.60
2017-10-19T10:24:55.749Z,25.93
2017-10-19T10:27:21.881Z,28.30
2017-10-19T10:29:48.057Z,25.77
2017-10-19T10:32:14.360Z,26.70
2017-10-19T10:34:41.291Z,24.03
2017-10-19T10:37:08.174Z,25.27
2017-10-19T10:39:34.346Z,25.60
2017-10-19T10:42:01.544Z,23.70
2017-10-19T10:44:27.690Z,23.77
2017-10-19T10:46:53.885Z,25.47
2017-10-19T10:49:20.839Z,23.10
2017-10-19T10:51:47.025Z,22.53
2017-10-19T10:54:13.245Z,21.47
2017-10-19T10:56:40.581Z,21.33
2017-10-19T10:59:06.798Z,19.83
2017-10-19T11:01:32.970Z,17.80
2017-10-19T11:03:59.192Z,18.07
2017-10-19T11:06:25.441Z,18.40
2017-10-19T11:08:52.749Z,17.87
2017-10-19T11:11:18.973Z,15.60
2017-10-19T11:13:45.179Z,16.60
2017-10-19T11:16:11.418Z,14.73
2017-10-19T11:18:37.635Z,17.03
2017-10-19T11:21:03.814Z,14.47
2017-10-19T11:23:29.969Z,15.40
2017-10-19T11:25:56.924Z,14.20
2017-10-19T11:28:23.073Z,12.50
2017-10-19T11:30:49.241Z,10.30
2017-10-19T11:33:15.432Z,8.97
2017-10-19T11:35:41.628Z,9.17
2017-10-19T11:38:07.796Z,8.80
2017-10-19T11:40:33.953Z,8.33
2017-10-19T11:43:00.153Z,8.30
2017-10-19T11:45:26.324Z,8.00
2017-10-19T11:47:53.244Z,8.53
2017-10-19T11:50:19.447Z,7.60
2017-10-19T11:52:45.676Z,7.23
2017-10-19T11:55:11.900Z,8.63
2017-10-19T11:57:38.112Z,6.97
2017-10-19T12:00:04.362Z,6.90
2017-10-19T12:02:30.526Z,5.80
2017-10-19T12:04:56.772Z,6.13
2017-10-19T12:07:23.693Z,6.63
2017-10-19T12:09:49.869Z,5.67
2017-10-19T12:12:16.059Z,5.83
2017-10-19T12:14:42.970Z,6.33
2017-10-19T12:17:09.169Z,6.77
2017-10-19T12:19:35.362Z,6.77
2017-10-19T12:22:02.291Z,6.93
2017-10-19T12:24:29.375Z,6.03
2017-10-19T12:26:55.527Z,6.07
2017-10-19T12:29:21.745Z,5.43
2017-10-19T12:31:47.937Z,5.80
2017-10-19T12:34:14.930Z,5.00
2017-10-19T12:36:41.113Z,5.93
2017-10-19T12:39:08.065Z,5.57
2017-10-19T12:41:35.000Z,5.77
2017-10-19T12:44:02.012Z,6.03
2017-10-19T12:46:28.224Z,5.00
2017-10-19T12:48:54.412Z,5.13
2017-10-19T12:51:21.365Z,5.00
2017-10-19T12:53:47.615Z,4.80
2017-10-19T12:56:14.238Z,4.70
2017-10-19T12:58:40.373Z,5.13
2017-10-19T13:01:06.514Z,5.33
2017-10-19T13:03:32.705Z,5.50
2017-10-19T13:05:59.594Z,4.23
2017-10-19T13:08:26.433Z,5.00
2017-10-19T13:10:52.606Z,4.30
2017-10-19T13:13:19.632Z,5.00
2017-10-19T13:15:46.559Z,5.20
2017-10-19T13:18:12.784Z,4.83
2017-10-19T13:20:38.995Z,4.80
2017-10-19T13:23:05.191Z,5.57
2017-10-19T13:25:32.157Z,5.37
2017-10-19T13:27:58.945Z,5.40
2017-10-19T13:30:25.132Z,5.20
2017-10-19T13:32:51.318Z,5.80
2017-10-19T13:35:17.506Z,5.50
2017-10-19T13:37:43.698Z,5.20
2017-10-19T13:40:09.894Z,5.67
2017-10-19T13:42:36.079Z,5.77
2017-10-19T13:45:02.206Z,5.70
2017-10-19T13:47:28.425Z,5.50
2017-10-19T13:49:54.616Z,6.03
2017-10-19T13:52:21.552Z,6.30
2017-10-19T13:54:47.791Z,5.70
2017-10-19T13:57:14.756Z,6.50
2017-10-19T13:59:40.926Z,5.93
2017-10-19T14:02:07.173Z,5.53
2017-10-19T14:04:33.460Z,6.73
2017-10-19T14:06:59.605Z,5.33
2017-10-19T14:09:25.838Z,5.00
2017-10-19T14:11:52.002Z,5.70
2017-10-19T14:14:18.989Z,5.83
2017-10-19T14:16:45.214Z,6.13
2017-10-19T14:19:11.360Z,5.40
2017-10-19T14:21:37.597Z,5.83
2017-10-19T14:24:04.587Z,5.20
2017-10-19T14:26:30.701Z,5.23
2017-10-19T14:28:56.872Z,5.10
2017-10-19T14:31:23.080Z,5.80
2017-10-19T14:33:49.246Z,5.67
2017-10-19T14:36:15.411Z,5.10
2017-10-19T14:38:42.689Z,5.33
2017-10-19T14:41:08.811Z,5.10
2017-10-19T14:43:35.706Z,6.20
2017-10-19T14:46:01.989Z,5.70
2017-10-19T14:48:28.180Z,5.90
2017-10-19T14:50:54.406Z,5.83
2017-10-19T14:53:20.597Z,5.50
2017-10-19T14:55:46.722Z,4.90
2017-10-19T14:58:12.932Z,5.10
2017-10-19T15:00:39.146Z,4.50
2017-10-19T15:03:06.080Z,5.87
2017-10-19T15:05:32.980Z,4.77
2017-10-19T15:07:59.219Z,5.87
2017-10-19T15:10:25.386Z,5.37
2017-10-19T15:12:52.285Z,4.83
2017-10-19T15:15:18.497Z,5.03
2017-10-19T15:17:44.646Z,5.13
2017-10-19T15:20:10.816Z,4.73
2017-10-19T15:22:37.038Z,6.43
2017-10-19T15:25:03.972Z,4.50
2017-10-19T15:27:30.850Z,4.90
2017-10-19T15:29:57.035Z,5.33
2017-10-19T15:32:23.181Z,5.33
2017-10-19T15:34:50.077Z,4.70
2017-10-19T15:37:16.700Z,4.60
2017-10-19T15:39:42.904Z,5.70
2017-10-19T15:42:09.125Z,5.57
2017-10-19T15:44:35.324Z,5.50
2017-10-19T15:47:02.251Z,5.07
2017-10-19T15:49:28.413Z,6.53
2017-10-19T15:51:55.395Z,4.90
2017-10-19T15:54:21.621Z,4.70
2017-10-19T15:56:47.823Z,5.20
2017-10-19T15:59:14.764Z,5.80
2017-10-19T16:01:41.695Z,5.60
2017-10-19T16:04:08.606Z,6.33
2017-10-19T16:06:34.839Z,5.40
2017-10-19T16:09:01.091Z,5.40
2017-10-19T16:11:28.075Z,6.03
2017-10-19T16:13:54.305Z,6.67
2017-10-19T16:16:20.514Z,5.30
2017-10-19T16:18:47.574Z,6.17
2017-10-19T16:21:13.808Z,6.03
2017-10-19T16:23:39.981Z,6.63
2017-10-19T16:26:06.153Z,8.10
2017-10-19T16:28:32.456Z,6.97
2017-10-19T16:30:58.634Z,7.43
2017-10-19T16:33:24.790Z,7.23
2017-10-19T16:35:51.912Z,7.20
2017-10-19T16:38:18.345Z,6.87
2017-10-19T16:40:44.577Z,8.20
2017-10-19T16:43:10.797Z,7.17
2017-10-19T16:45:36.955Z,7.73
2017-10-19T16:48:03.179Z,6.50
2017-10-19T16:50:29.429Z,7.10
2017-10-19T16:52:56.427Z,7.03
2017-10-19T16:55:22.592Z,7.27
2017-10-19T16:57:48.798Z,7.10
2017-10-19T17:00:15.521Z,7.10
2017-10-19T17:02:41.775Z,6.90
2017-10-19T17:05:08.129Z,7.03
2017-10-19T17:07:34.331Z,7.03
2017-10-19T17:10:00.529Z,7.40
2017-10-19T17:12:26.780Z,7.00
2017-10-19T17:14:52.989Z,7.70
2017-10-19T17:17:19.143Z,7.40
2017-10-19T17:19:45.610Z,8.30
2017-10-19T17:22:11.824Z,8.43
2017-10-19T17:24:38.022Z,9.90
2017-10-19T17:27:04.276Z,8.73
2017-10-19T17:29:30.448Z,9.03
2017-10-19T17:31:57.413Z,9.73
2017-10-19T17:34:23.689Z,10.80
2017-10-19T17:36:49.837Z,9.17
2017-10-19T17:39:16.780Z,9.50
2017-10-19T17:41:43.749Z,10.00
2017-10-19T17:44:09.956Z,9.80
2017-10-19T17:46:36.921Z,10.53
2017-10-19T17:49:03.125Z,10.27
2017-10-19T17:51:29.361Z,11.33
2017-10-19T17:53:56.262Z,10.83
2017-10-19T17:56:22.521Z,11.00
2017-10-19T17:58:49.521Z,10.57
2017-10-19T18:01:15.747Z,11.80
2017-10-19T18:03:41.920Z,10.60
2017-10-19T18:06:08.100Z,11.50
2017-10-19T18:08:34.321Z,11.60
2017-10-19T18:11:00.554Z,11.27
2017-10-19T18:13:26.751Z,10.80
2017-10-19T18:15:53.672Z,12.10
2017-10-19T18:18:20.667Z,11.90
2017-10-19T18:20:46.903Z,12.07
2017-10-19T18:23:13.082Z,12.43
2017-10-19T18:25:39.310Z,13.17
2017-10-19T18:28:05.536Z,14.50
2017-10-19T18:30:31.705Z,13.67
2017-10-19T18:32:57.886Z,12.83
2017-10-19T18:35:24.080Z,13.40
2017-10-19T18:37:50.249Z,14.13
2017-10-19T18:40:16.482Z,14.10
2017-10-19T18:42:43.431Z,14.60
2017-10-19T18:45:09.648Z,14.13
2017-10-19T18:47:35.822Z,14.80
2017-10-19T18:50:02.058Z,15.80
2017-10-19T18:52:28.300Z,15.13
2017-10-19T18:54:54.527Z,16.23
2017-10-19T18:57:20.776Z,15.20
2017-10-19T18:59:46.970Z,14.50
2017-10-19T19:02:13.161Z,13.70
2017-10-19T19:04:40.138Z,14.50
2017-10-19T19:07:06.319Z,14.43
2017-10-19T19:09:32.563Z,15.63
2017-10-19T19:11:59.655Z,14.90
2017-10-19T19:14:25.856Z,15.87
2017-10-19T19:16:52.041Z,15.10
2017-10-19T19:19:18.277Z,16.43
2017-10-19T19:21:44.569Z,15.60
2017-10-19T19:24:10.864Z,15.63
2017-10-19T19:26:37.136Z,15.53
2017-10-19T19:29:03.401Z,15.60
2017-10-19T19:31:30.340Z,16.10
2017-10-19T19:33:56.597Z,15.77
2017-10-19T19:36:23.537Z,15.83
2017-10-19T19:38:50.479Z,15.70
2017-10-19T19:41:17.451Z,14.60
2017-10-19T19:43:43.635Z,15.30
2017-10-19T19:46:10.648Z,15.87
2017-10-19T19:48:36.827Z,14.20
2017-10-19T19:51:03.786Z,15.47
2017-10-19T19:53:30.003Z,16.43
2017-10-19T19:55:57.016Z,15.83
2017-10-19T19:58:23.990Z,18.97
2017-10-19T20:00:50.923Z,17.73
2017-10-19T20:03:17.089Z,17.20
2017-10-19T20:05:43.254Z,15.90
2017-10-19T20:08:09.439Z,15.90
2017-10-19T20:10:35.628Z,15.30
2017-10-19T20:13:01.816Z,15.93
2017-10-19T20:15:28.040Z,14.67
2017-10-19T20:17:54.230Z,14.67
2017-10-19T20:20:21.198Z,14.07
2017-10-19T20:22:47.876Z,14.80
2017-10-19T20:25:14.108Z,13.70
2017-10-19T20:27:40.258Z,14.80
2017-10-19T20:30:06.484Z,14.63
2017-10-19T20:32:33.456Z,13.87
2017-10-19T20:34:59.618Z,14.30
2017-10-19T20:37:25.819Z,15.70
2017-10-19T20:39:51.961Z,14.03
2017-10-19T20:42:18.157Z,14.07
2017-10-19T20:44:44.354Z,16.30
2017-10-19T20:47:10.532Z,16.73
2017-10-19T20:49:36.766Z,15.13
2017-10-19T20:52:02.988Z,13.93
2017-10-19T20:54:29.137Z,14.50
2017-10-19T20:56:55.341Z,15.27
2017-10-19T20:59:21.538Z,16.33
2017-10-19T21:01:47.706Z,14.50
2017-10-19T21:04:13.851Z,15.37
2017-10-19T21:06:40.061Z,15.70
2017-10-19T21:09:06.300Z,15.17
2017-10-19T21:11:32.504Z,14.97
2017-10-19T21:13:58.695Z,15.77
2017-10-19T21:16:24.908Z,15.00
2017-10-19T21:18:51.107Z,15.07
2017-10-19T21:21:17.321Z,15.67
2017-10-19T21:23:43.484Z,14.90
2017-10-19T21:26:09.701Z,15.03
2017-10-19T21:28:35.934Z,15.50
2017-10-19T21:31:02.085Z,15.50
2017-10-19T21:33:28.996Z,14.97
2017-10-19T21:35:55.217Z,15.77
2017-10-19T21:38:21.369Z,14.70
2017-10-19T21:40:47.547Z,15.60
2017-10-19T21:43:13.785Z,14.50
2017-10-19T21:45:40.025Z,14.33
2017-10-19T21:48:07.697Z,15.30
2017-10-19T21:50:33.976Z,14.67
2017-10-19T21:53:00.961Z,15.23
2017-10-19T21:55:27.106Z,14.00
2017-10-19T21:57:53.291Z,14.23
2017-10-19T22:00:19.473Z,14.50
2017-10-19T22:02:45.688Z,13.40
2017-10-19T22:05:16.965Z,13.83
2017-10-19T22:07:44.479Z,13.40
2017-10-19T22:10:19.075Z,13.07
2017-10-19T22:13:01.917Z,14.10
2017-10-19T22:15:30.757Z,13.33
2017-10-19T22:18:03.953Z,12.97
2017-10-19T22:20:39.402Z,11.93
2017-10-19T22:23:13.385Z,11.53
2017-10-19T22:25:39.646Z,12.93
2017-10-19T22:28:05.909Z,13.40
2017-10-19T22:45:08.216Z,13.60
2017-10-19T22:48:02.204Z,13.33
2017-10-19T22:53:49.714Z,13.30
2017-10-19T22:58:49.014Z,13.07
2017-10-19T23:01:15.208Z,14.00
2017-10-19T23:03:43.047Z,13.37
2017-10-19T23:06:12.190Z,13.20
2017-10-19T23:08:40.503Z,12.40
2017-10-19T23:11:08.027Z,13.00
2017-10-19T23:13:34.997Z,13.60
2017-10-19T23:16:02.279Z,12.83
2017-10-19T23:18:35.868Z,13.00
2017-10-19T23:21:02.095Z,12.60
2017-10-19T23:23:32.417Z,13.93
2017-10-19T23:26:03.540Z,11.23
2017-10-19T23:28:29.774Z,12.33
2017-10-19T23:30:59.701Z,13.03
2017-10-19T23:33:33.230Z,12.50
2017-10-19T23:36:00.298Z,13.27
2017-10-19T23:38:26.776Z,12.90
2017-10-19T23:40:53.015Z,12.60
2017-10-19T23:43:23.946Z,11.00
2017-10-19T23:45:58.276Z,12.60
2017-10-19T23:48:28.021Z,12.60
2017-10-19T23:50:56.238Z,12.50
2017-10-19T23:53:27.289Z,13.60
2017-10-19T23:55:53.506Z,12.90
2017-10-19T23:58:19.614Z,12.30
